Stone, Idaho
Current Conditions -  °F | °C
As of 3:35 PM on Thursday 23 Oct 2014 (Local Time) from KBMC Reporting Station
Clear Clear  
Wind Chill: 67°   Ceiling: Unl
Heat Index: 67°   Visibility: 10mi
Dew Point: 26°   Wind: 3mph
Humidity: 22%   Direction: 330°NNW
Pressure: 30.08"   Gusts: NA
Location:  42.04°N, 112.71°W
Report Text: KBMC 232135Z AUTO 33003KT 10SM CLR 19/M03 A3008 RMK AO1 T01931032
Loading
Personal Weather Stations






























Interactive Weather Map
Tropical Storm Tracking
New forecast layout! Learn more

10-Day Weather Forecast

Advertisements
Track Severe Weather on mobile